UAE671 OMDB-OBBI
Flight info
| Callsign | UAE671 |
|---|---|
| Flight time | 0h 46m |
| Altitude | 26000 |
| Route | NABIX P699 ORMID Y856 ALKAN/N0420F180 Y856 SOLOB/N0410F160 Y856 ORDIG |
| Aircraft | B77W/H-SDE1E2E3FGHIJ2J3J4J5M1RWXY/LB1D1 |
Departure
| Time | 2026-04-20 16:04 |
|---|---|
| Airport | Dubai International Airport (OMDB) |
Arrival
| Time | 2026-04-20 16:51 |
|---|---|
| Airport | Bahrain International Airport (OBBI) |
| Time | Latitude | Longitude | Altitude | Speed | Heading |
|---|---|---|---|---|---|
| 2026-04-20 15:31 | 25.24351 | 55.37342 | 79 ft | 0 kts | 216° |
| 2026-04-20 15:34 | 25.24305 | 55.37400 | 76 ft | 0 kts | 216° |
| 2026-04-20 15:35 | 25.24306 | 55.37401 | 79 ft | 1 kts | 216° |
| 2026-04-20 15:35 | 25.24316 | 55.37409 | 79 ft | 3 kts | 216° |
| 2026-04-20 15:36 | 25.24318 | 55.37410 | 79 ft | 0 kts | 216° |
| 2026-04-20 15:53 | 25.24328 | 55.37419 | 79 ft | 2 kts | 215° |
| 2026-04-20 15:53 | 25.24341 | 55.37429 | 79 ft | 2 kts | 216° |
| 2026-04-20 15:54 | 25.24354 | 55.37439 | 79 ft | 2 kts | 216° |
| 2026-04-20 15:54 | 25.24362 | 55.37445 | 79 ft | 2 kts | 216° |
| 2026-04-20 15:54 | 25.24375 | 55.37455 | 79 ft | 2 kts | 216° |
| 2026-04-20 15:54 | 25.24390 | 55.37467 | 79 ft | 1 kts | 204° |
| 2026-04-20 15:55 | 25.24395 | 55.37470 | 79 ft | 1 kts | 178° |
| 2026-04-20 15:55 | 25.24402 | 55.37469 | 79 ft | 1 kts | 140° |
| 2026-04-20 15:55 | 25.24410 | 55.37458 | 79 ft | 2 kts | 120° |
| 2026-04-20 15:55 | 25.24410 | 55.37456 | 79 ft | 0 kts | 120° |
| 2026-04-20 15:59 | 25.24407 | 55.37464 | 79 ft | 4 kts | 120° |
| 2026-04-20 15:59 | 25.24373 | 55.37528 | 79 ft | 15 kts | 120° |
| 2026-04-20 15:59 | 25.24318 | 55.37624 | 79 ft | 1 kts | 123° |
| 2026-04-20 16:00 | 25.24318 | 55.37625 | 79 ft | 1 kts | 123° |
| 2026-04-20 16:00 | 25.24299 | 55.37657 | 79 ft | 10 kts | 123° |
| 2026-04-20 16:00 | 25.24262 | 55.37725 | 79 ft | 4 kts | 109° |
| 2026-04-20 16:00 | 25.24270 | 55.37765 | 79 ft | 9 kts | 59° |
| 2026-04-20 16:01 | 25.24338 | 55.37832 | 79 ft | 15 kts | 29° |
| 2026-04-20 16:01 | 25.24380 | 55.37859 | 79 ft | 0 kts | 31° |
| 2026-04-20 16:01 | 25.24381 | 55.37859 | 79 ft | 1 kts | 31° |
| 2026-04-20 16:01 | 25.24416 | 55.37882 | 79 ft | 11 kts | 31° |
| 2026-04-20 16:02 | 25.24516 | 55.37953 | 79 ft | 23 kts | 33° |
| 2026-04-20 16:02 | 25.24655 | 55.38050 | 79 ft | 13 kts | 31° |
| 2026-04-20 16:02 | 25.24701 | 55.38080 | 79 ft | 8 kts | 31° |
| 2026-04-20 16:02 | 25.24763 | 55.38092 | 79 ft | 11 kts | 336° |
| 2026-04-20 16:03 | 25.24804 | 55.38033 | 79 ft | 12 kts | 300° |
| 2026-04-20 16:03 | 25.24865 | 55.37920 | 79 ft | 20 kts | 303° |
| 2026-04-20 16:03 | 25.24944 | 55.37781 | 79 ft | 38 kts | 301° |
| 2026-04-20 16:03 | 25.25246 | 55.37238 | 79 ft | 130 kts | 301° |
| 2026-04-20 16:04 | 25.25876 | 55.36099 | 164 ft | 210 kts | 301° |
| 2026-04-20 16:04 | 25.26712 | 55.34611 | 1037 ft | 242 kts | 303° |
| 2026-04-20 16:04 | 25.27630 | 55.32992 | 2438 ft | 254 kts | 301° |
| 2026-04-20 16:04 | 25.28495 | 55.31264 | 3499 ft | 263 kts | 296° |
| 2026-04-20 16:05 | 25.28891 | 55.29238 | 4032 ft | 276 kts | 273° |
| 2026-04-20 16:05 | 25.28643 | 55.27182 | 4828 ft | 262 kts | 256° |
| 2026-04-20 16:05 | 25.28037 | 55.25365 | 6116 ft | 242 kts | 247° |
| 2026-04-20 16:05 | 25.27306 | 55.23759 | 7568 ft | 239 kts | 243° |
| 2026-04-20 16:06 | 25.26507 | 55.22074 | 8873 ft | 256 kts | 244° |
| 2026-04-20 16:06 | 25.25670 | 55.20257 | 10233 ft | 274 kts | 245° |
| 2026-04-20 16:06 | 25.24907 | 55.18310 | 11608 ft | 282 kts | 251° |
| 2026-04-20 16:06 | 25.24307 | 55.16211 | 12746 ft | 287 kts | 256° |
| 2026-04-20 16:07 | 25.23853 | 55.14106 | 14152 ft | 275 kts | 259° |
| 2026-04-20 16:07 | 25.23491 | 55.12056 | 15556 ft | 272 kts | 261° |
| 2026-04-20 16:07 | 25.23171 | 55.09976 | 16793 ft | 278 kts | 262° |
| 2026-04-20 16:07 | 25.22869 | 55.07841 | 17991 ft | 284 kts | 262° |
| 2026-04-20 16:08 | 25.22575 | 55.05689 | 19054 ft | 297 kts | 262° |
| 2026-04-20 16:08 | 25.22261 | 55.03344 | 19675 ft | 320 kts | 262° |
| 2026-04-20 16:08 | 25.21923 | 55.00827 | 20321 ft | 341 kts | 262° |
| 2026-04-20 16:08 | 25.21577 | 54.98160 | 20963 ft | 361 kts | 263° |
| 2026-04-20 16:09 | 25.21256 | 54.95302 | 21553 ft | 392 kts | 264° |
| 2026-04-20 16:09 | 25.20951 | 54.92181 | 22180 ft | 421 kts | 264° |
| 2026-04-20 16:09 | 25.20666 | 54.88913 | 22815 ft | 434 kts | 265° |
| 2026-04-20 16:09 | 25.20406 | 54.85628 | 23436 ft | 433 kts | 265° |
| 2026-04-20 16:10 | 25.20164 | 54.82321 | 24060 ft | 431 kts | 265° |
| 2026-04-20 16:10 | 25.19974 | 54.79013 | 24685 ft | 433 kts | 268° |
| 2026-04-20 16:10 | 25.19921 | 54.75684 | 25313 ft | 436 kts | 270° |
| 2026-04-20 16:10 | 25.19973 | 54.72310 | 25918 ft | 443 kts | 271° |
| 2026-04-20 16:11 | 25.20100 | 54.68854 | 26056 ft | 459 kts | 272° |
| 2026-04-20 16:11 | 25.20284 | 54.65292 | 26029 ft | 466 kts | 273° |
| 2026-04-20 16:11 | 25.20506 | 54.61751 | 26006 ft | 462 kts | 274° |
| 2026-04-20 16:11 | 25.20751 | 54.58225 | 25997 ft | 460 kts | 274° |
| 2026-04-20 16:12 | 25.21090 | 54.54755 | 25996 ft | 459 kts | 277° |
| 2026-04-20 16:12 | 25.21622 | 54.51276 | 25997 ft | 460 kts | 280° |
| 2026-04-20 16:12 | 25.22296 | 54.47838 | 25997 ft | 460 kts | 282° |
| 2026-04-20 16:12 | 25.23077 | 54.44411 | 25997 ft | 460 kts | 284° |
| 2026-04-20 16:13 | 25.23929 | 54.41011 | 25996 ft | 460 kts | 285° |
| 2026-04-20 16:13 | 25.24830 | 54.37622 | 25996 ft | 460 kts | 286° |
| 2026-04-20 16:13 | 25.25756 | 54.34235 | 25996 ft | 459 kts | 286° |
| 2026-04-20 16:13 | 25.26662 | 54.30852 | 25996 ft | 460 kts | 285° |
| 2026-04-20 16:14 | 25.27546 | 54.27466 | 25996 ft | 459 kts | 285° |
| 2026-04-20 16:14 | 25.28404 | 54.24111 | 25996 ft | 459 kts | 285° |
| 2026-04-20 16:14 | 25.29256 | 54.20715 | 25996 ft | 459 kts | 284° |
| 2026-04-20 16:14 | 25.30097 | 54.17305 | 25996 ft | 459 kts | 284° |
| 2026-04-20 16:15 | 25.30902 | 54.13893 | 25996 ft | 459 kts | 283° |
| 2026-04-20 16:15 | 25.31675 | 54.10475 | 25996 ft | 459 kts | 283° |
| 2026-04-20 16:15 | 25.32428 | 54.07038 | 25996 ft | 459 kts | 283° |
| 2026-04-20 16:15 | 25.33164 | 54.03605 | 25996 ft | 459 kts | 282° |
| 2026-04-20 16:16 | 25.33889 | 54.00170 | 25996 ft | 459 kts | 282° |
| 2026-04-20 16:16 | 25.34606 | 53.96736 | 25996 ft | 459 kts | 282° |
| 2026-04-20 16:16 | 25.35320 | 53.93295 | 25996 ft | 459 kts | 282° |
| 2026-04-20 16:16 | 25.36023 | 53.89898 | 25996 ft | 459 kts | 282° |
| 2026-04-20 16:17 | 25.36738 | 53.86460 | 25996 ft | 459 kts | 282° |
| 2026-04-20 16:17 | 25.37456 | 53.83022 | 25996 ft | 459 kts | 282° |
| 2026-04-20 16:17 | 25.38177 | 53.79584 | 25996 ft | 459 kts | 282° |
| 2026-04-20 16:17 | 25.38901 | 53.76138 | 25996 ft | 459 kts | 282° |
| 2026-04-20 16:18 | 25.39622 | 53.72705 | 25996 ft | 459 kts | 282° |
| 2026-04-20 16:18 | 25.40344 | 53.69267 | 25996 ft | 459 kts | 282° |
| 2026-04-20 16:18 | 25.41066 | 53.65829 | 25996 ft | 459 kts | 282° |
| 2026-04-20 16:18 | 25.41776 | 53.62436 | 25996 ft | 459 kts | 282° |
| 2026-04-20 16:19 | 25.42497 | 53.58986 | 25996 ft | 459 kts | 282° |
| 2026-04-20 16:19 | 25.43215 | 53.55548 | 25996 ft | 459 kts | 282° |
| 2026-04-20 16:19 | 25.43931 | 53.52117 | 25996 ft | 459 kts | 282° |
| 2026-04-20 16:19 | 25.44648 | 53.48672 | 25996 ft | 459 kts | 282° |
| 2026-04-20 16:20 | 25.45364 | 53.45231 | 25996 ft | 459 kts | 282° |
| 2026-04-20 16:20 | 25.46078 | 53.41790 | 25996 ft | 459 kts | 282° |
| 2026-04-20 16:20 | 25.46792 | 53.38345 | 25996 ft | 459 kts | 282° |
| 2026-04-20 16:20 | 25.47504 | 53.34902 | 25996 ft | 459 kts | 282° |
| 2026-04-20 16:21 | 25.48215 | 53.31457 | 25996 ft | 459 kts | 282° |
| 2026-04-20 16:21 | 25.48916 | 53.28055 | 25996 ft | 459 kts | 282° |
| 2026-04-20 16:21 | 25.49625 | 53.24613 | 25996 ft | 459 kts | 282° |
| 2026-04-20 16:21 | 25.50335 | 53.21162 | 25996 ft | 459 kts | 282° |
| 2026-04-20 16:22 | 25.51042 | 53.17723 | 25996 ft | 459 kts | 282° |
| 2026-04-20 16:22 | 25.51748 | 53.14279 | 25996 ft | 459 kts | 282° |
| 2026-04-20 16:22 | 25.52455 | 53.10832 | 25996 ft | 459 kts | 282° |
| 2026-04-20 16:22 | 25.53161 | 53.07379 | 25996 ft | 459 kts | 282° |
| 2026-04-20 16:23 | 25.53866 | 53.03929 | 25996 ft | 459 kts | 282° |
| 2026-04-20 16:23 | 25.54567 | 53.00489 | 25996 ft | 459 kts | 282° |
| 2026-04-20 16:23 | 25.55268 | 52.97041 | 25996 ft | 459 kts | 282° |
| 2026-04-20 16:23 | 25.56007 | 52.93654 | 25995 ft | 459 kts | 285° |
| 2026-04-20 16:24 | 25.57028 | 52.90305 | 25997 ft | 460 kts | 290° |
| 2026-04-20 16:24 | 25.58273 | 52.87033 | 25998 ft | 461 kts | 293° |
| 2026-04-20 16:24 | 25.59657 | 52.83837 | 25998 ft | 461 kts | 295° |
| 2026-04-20 16:24 | 25.61138 | 52.80675 | 25997 ft | 461 kts | 297° |
| 2026-04-20 16:25 | 25.62669 | 52.77553 | 25996 ft | 461 kts | 297° |
| 2026-04-20 16:25 | 25.64229 | 52.74448 | 25996 ft | 461 kts | 298° |
| 2026-04-20 16:25 | 25.65803 | 52.71349 | 25996 ft | 461 kts | 298° |
| 2026-04-20 16:25 | 25.67378 | 52.68257 | 25996 ft | 461 kts | 298° |
| 2026-04-20 16:26 | 25.68951 | 52.65157 | 25996 ft | 461 kts | 298° |
| 2026-04-20 16:26 | 25.70519 | 52.62046 | 25996 ft | 461 kts | 298° |
| 2026-04-20 16:26 | 25.72053 | 52.58977 | 25996 ft | 461 kts | 297° |
| 2026-04-20 16:26 | 25.73595 | 52.55863 | 25996 ft | 461 kts | 297° |
| 2026-04-20 16:27 | 25.75121 | 52.52734 | 25996 ft | 461 kts | 297° |
| 2026-04-20 16:27 | 25.76626 | 52.49591 | 25996 ft | 461 kts | 296° |
| 2026-04-20 16:27 | 25.78115 | 52.46439 | 25996 ft | 461 kts | 296° |
| 2026-04-20 16:27 | 25.79589 | 52.43285 | 25996 ft | 459 kts | 296° |
| 2026-04-20 16:28 | 25.81026 | 52.40190 | 25992 ft | 442 kts | 296° |
| 2026-04-20 16:28 | 25.82402 | 52.37218 | 25989 ft | 425 kts | 296° |
| 2026-04-20 16:28 | 25.83722 | 52.34357 | 25889 ft | 411 kts | 296° |
| 2026-04-20 16:28 | 25.85008 | 52.31563 | 25722 ft | 399 kts | 296° |
| 2026-04-20 16:29 | 25.86375 | 52.28923 | 25544 ft | 391 kts | 301° |
| 2026-04-20 16:29 | 25.87917 | 52.26464 | 25368 ft | 386 kts | 305° |
| 2026-04-20 16:29 | 25.89552 | 52.24156 | 25196 ft | 384 kts | 307° |
| 2026-04-20 16:29 | 25.91272 | 52.21910 | 25023 ft | 381 kts | 309° |
| 2026-04-20 16:30 | 25.93037 | 52.19715 | 24848 ft | 380 kts | 310° |
| 2026-04-20 16:30 | 25.94818 | 52.17561 | 24674 ft | 378 kts | 310° |
| 2026-04-20 16:30 | 25.96608 | 52.15427 | 24500 ft | 376 kts | 311° |
| 2026-04-20 16:30 | 25.98390 | 52.13313 | 24326 ft | 375 kts | 311° |
| 2026-04-20 16:31 | 26.00174 | 52.11198 | 24163 ft | 373 kts | 311° |
| 2026-04-20 16:31 | 26.01909 | 52.09133 | 24050 ft | 371 kts | 310° |
| 2026-04-20 16:31 | 26.03691 | 52.06998 | 23975 ft | 370 kts | 310° |
| 2026-04-20 16:31 | 26.05437 | 52.04895 | 23902 ft | 370 kts | 310° |
| 2026-04-20 16:32 | 26.07176 | 52.02794 | 23829 ft | 369 kts | 310° |
| 2026-04-20 16:32 | 26.08914 | 52.00690 | 23757 ft | 369 kts | 310° |
| 2026-04-20 16:32 | 26.10688 | 51.98676 | 23685 ft | 369 kts | 314° |
| 2026-04-20 16:32 | 26.12557 | 51.96726 | 23615 ft | 369 kts | 315° |
| 2026-04-20 16:33 | 26.14458 | 51.94799 | 23540 ft | 369 kts | 315° |
| 2026-04-20 16:33 | 26.16367 | 51.92859 | 23192 ft | 374 kts | 315° |
| 2026-04-20 16:33 | 26.18280 | 51.90885 | 22715 ft | 375 kts | 314° |
| 2026-04-20 16:33 | 26.20169 | 51.88891 | 22220 ft | 374 kts | 314° |
| 2026-04-20 16:34 | 26.22012 | 51.86845 | 21720 ft | 373 kts | 311° |
| 2026-04-20 16:34 | 26.23747 | 51.84708 | 21221 ft | 371 kts | 308° |
| 2026-04-20 16:34 | 26.25346 | 51.82472 | 20724 ft | 369 kts | 305° |
| 2026-04-20 16:34 | 26.26816 | 51.80133 | 20225 ft | 367 kts | 302° |
| 2026-04-20 16:35 | 26.28158 | 51.77720 | 19727 ft | 366 kts | 299° |
| 2026-04-20 16:35 | 26.29372 | 51.75283 | 19236 ft | 364 kts | 296° |
| 2026-04-20 16:35 | 26.30512 | 51.72763 | 18737 ft | 363 kts | 295° |
| 2026-04-20 16:35 | 26.31573 | 51.70221 | 18238 ft | 361 kts | 293° |
| 2026-04-20 16:36 | 26.32573 | 51.67659 | 17739 ft | 360 kts | 292° |
| 2026-04-20 16:36 | 26.33531 | 51.65073 | 17238 ft | 359 kts | 291° |
| 2026-04-20 16:36 | 26.34446 | 51.62498 | 16740 ft | 358 kts | 291° |
| 2026-04-20 16:36 | 26.35338 | 51.59908 | 16239 ft | 357 kts | 290° |
| 2026-04-20 16:37 | 26.36210 | 51.57320 | 15739 ft | 356 kts | 290° |
| 2026-04-20 16:37 | 26.37065 | 51.54737 | 15239 ft | 355 kts | 290° |
| 2026-04-20 16:37 | 26.37911 | 51.52153 | 14738 ft | 354 kts | 290° |
| 2026-04-20 16:37 | 26.38736 | 51.49613 | 14245 ft | 352 kts | 290° |
| 2026-04-20 16:38 | 26.39562 | 51.47053 | 13746 ft | 351 kts | 290° |
| 2026-04-20 16:38 | 26.40387 | 51.44490 | 13246 ft | 350 kts | 290° |
| 2026-04-20 16:38 | 26.41205 | 51.41938 | 12746 ft | 349 kts | 290° |
| 2026-04-20 16:38 | 26.42021 | 51.39390 | 12246 ft | 348 kts | 290° |
| 2026-04-20 16:39 | 26.42827 | 51.36870 | 12048 ft | 338 kts | 290° |
| 2026-04-20 16:39 | 26.43593 | 51.34449 | 12000 ft | 324 kts | 289° |
| 2026-04-20 16:39 | 26.43953 | 51.32037 | 11973 ft | 310 kts | 268° |
| 2026-04-20 16:39 | 26.43466 | 51.29769 | 12002 ft | 296 kts | 251° |
| 2026-04-20 16:40 | 26.42612 | 51.27736 | 11996 ft | 283 kts | 244° |
| 2026-04-20 16:40 | 26.41654 | 51.25867 | 11990 ft | 271 kts | 241° |
| 2026-04-20 16:40 | 26.40704 | 51.24143 | 11987 ft | 259 kts | 240° |
| 2026-04-20 16:40 | 26.39735 | 51.22426 | 11850 ft | 260 kts | 240° |
| 2026-04-20 16:41 | 26.38759 | 51.20706 | 11309 ft | 272 kts | 239° |
| 2026-04-20 16:41 | 26.37728 | 51.18894 | 10770 ft | 281 kts | 239° |
| 2026-04-20 16:41 | 26.36662 | 51.17025 | 10227 ft | 289 kts | 239° |
| 2026-04-20 16:41 | 26.35569 | 51.15111 | 9683 ft | 296 kts | 238° |
| 2026-04-20 16:42 | 26.34368 | 51.13208 | 9138 ft | 303 kts | 234° |
| 2026-04-20 16:42 | 26.33076 | 51.11325 | 8594 ft | 309 kts | 233° |
| 2026-04-20 16:42 | 26.31730 | 51.09422 | 8048 ft | 315 kts | 232° |
| 2026-04-20 16:42 | 26.30388 | 51.07539 | 7553 ft | 314 kts | 232° |
| 2026-04-20 16:43 | 26.29047 | 51.05660 | 7031 ft | 303 kts | 232° |
| 2026-04-20 16:43 | 26.27793 | 51.03903 | 6382 ft | 265 kts | 232° |
| 2026-04-20 16:43 | 26.26696 | 51.02364 | 5832 ft | 253 kts | 232° |
| 2026-04-20 16:43 | 26.25635 | 51.00868 | 5270 ft | 239 kts | 232° |
| 2026-04-20 16:44 | 26.24623 | 50.99435 | 4715 ft | 233 kts | 232° |
| 2026-04-20 16:44 | 26.23637 | 50.98031 | 4159 ft | 227 kts | 232° |
| 2026-04-20 16:44 | 26.22658 | 50.96629 | 3695 ft | 234 kts | 232° |
| 2026-04-20 16:44 | 26.21680 | 50.95222 | 3221 ft | 225 kts | 232° |
| 2026-04-20 16:45 | 26.20773 | 50.93914 | 3067 ft | 207 kts | 232° |
| 2026-04-20 16:45 | 26.19945 | 50.92580 | 2998 ft | 215 kts | 239° |
| 2026-04-20 16:45 | 26.19560 | 50.90981 | 3122 ft | 209 kts | 260° |
| 2026-04-20 16:45 | 26.19343 | 50.89332 | 3073 ft | 224 kts | 262° |
| 2026-04-20 16:46 | 26.19141 | 50.87678 | 2889 ft | 212 kts | 262° |
| 2026-04-20 16:46 | 26.18943 | 50.86024 | 2586 ft | 217 kts | 262° |
| 2026-04-20 16:46 | 26.18747 | 50.84388 | 2228 ft | 209 kts | 262° |
| 2026-04-20 16:46 | 26.18572 | 50.82807 | 2053 ft | 205 kts | 264° |
| 2026-04-20 16:47 | 26.18563 | 50.81214 | 2014 ft | 205 kts | 271° |
| 2026-04-20 16:47 | 26.18613 | 50.79684 | 1984 ft | 191 kts | 272° |
| 2026-04-20 16:47 | 26.18667 | 50.78232 | 2017 ft | 184 kts | 272° |
| 2026-04-20 16:47 | 26.18901 | 50.76843 | 1965 ft | 185 kts | 288° |
| 2026-04-20 16:48 | 26.19534 | 50.75634 | 2201 ft | 178 kts | 302° |
| 2026-04-20 16:48 | 26.20244 | 50.74459 | 2118 ft | 193 kts | 304° |
| 2026-04-20 16:48 | 26.20986 | 50.73271 | 2017 ft | 180 kts | 304° |
| 2026-04-20 16:48 | 26.21774 | 50.72136 | 1816 ft | 184 kts | 308° |
| 2026-04-20 16:49 | 26.22499 | 50.71031 | 1850 ft | 178 kts | 305° |
| 2026-04-20 16:49 | 26.23295 | 50.69935 | 1837 ft | 179 kts | 309° |
| 2026-04-20 16:49 | 26.23990 | 50.68792 | 1659 ft | 183 kts | 304° |
| 2026-04-20 16:49 | 26.24696 | 50.67631 | 1293 ft | 179 kts | 304° |
| 2026-04-20 16:50 | 26.25367 | 50.66452 | 827 ft | 178 kts | 301° |
| 2026-04-20 16:50 | 26.26002 | 50.65278 | 446 ft | 178 kts | 302° |
| 2026-04-20 16:50 | 26.26657 | 50.64131 | 108 ft | 168 kts | 302° |
| 2026-04-20 16:50 | 26.27193 | 50.63159 | 24 ft | 128 kts | 307° |
| 2026-04-20 16:51 | 26.27535 | 50.62574 | 23 ft | 45 kts | 302° |
| 2026-04-20 16:51 | 26.27673 | 50.62333 | 23 ft | 23 kts | 303° |
| 2026-04-20 16:51 | 26.27735 | 50.62231 | 23 ft | 17 kts | 304° |
| 2026-04-20 16:51 | 26.27789 | 50.62114 | 23 ft | 12 kts | 274° |
| 2026-04-20 16:52 | 26.27765 | 50.62032 | 23 ft | 11 kts | 246° |
| 2026-04-20 16:52 | 26.27746 | 50.61983 | 23 ft | 0 kts | 243° |
| 2026-04-20 16:52 | 26.27745 | 50.61982 | 23 ft | 1 kts | 243° |
| 2026-04-20 16:53 | 26.27743 | 50.61978 | 23 ft | 0 kts | 241° |
| 2026-04-20 16:56 | 26.27738 | 50.61970 | 23 ft | 4 kts | 227° |
| 2026-04-20 16:56 | 26.27695 | 50.61964 | 23 ft | 9 kts | 155° |
| 2026-04-20 16:56 | 26.27669 | 50.62003 | 23 ft | 8 kts | 120° |
| 2026-04-20 16:56 | 26.27624 | 50.62087 | 23 ft | 16 kts | 123° |
| 2026-04-20 16:57 | 26.27549 | 50.62215 | 23 ft | 21 kts | 123° |
| 2026-04-20 16:57 | 26.27491 | 50.62314 | 23 ft | 14 kts | 123° |
| 2026-04-20 16:57 | 26.27458 | 50.62371 | 23 ft | 8 kts | 123° |
| 2026-04-20 16:57 | 26.27430 | 50.62419 | 23 ft | 5 kts | 123° |
| 2026-04-20 16:58 | 26.27404 | 50.62464 | 23 ft | 10 kts | 123° |
| 2026-04-20 16:58 | 26.27394 | 50.62482 | 23 ft | 0 kts | 123° |
| 2026-04-20 16:58 | 26.27393 | 50.62482 | 23 ft | 0 kts | 123° |
| 2026-04-20 16:59 | 26.27393 | 50.62483 | 23 ft | 0 kts | 123° |
| 2026-04-20 17:00 | 26.27382 | 50.62503 | 23 ft | 8 kts | 123° |
| 2026-04-20 17:00 | 26.27327 | 50.62597 | 23 ft | 20 kts | 123° |
| 2026-04-20 17:01 | 26.27233 | 50.62759 | 23 ft | 23 kts | 123° |
| 2026-04-20 17:01 | 26.27161 | 50.62877 | 23 ft | 19 kts | 124° |
| 2026-04-20 17:01 | 26.27088 | 50.62997 | 23 ft | 15 kts | 123° |
| 2026-04-20 17:01 | 26.27020 | 50.63114 | 23 ft | 19 kts | 122° |
| 2026-04-20 17:02 | 26.26971 | 50.63158 | 23 ft | 9 kts | 173° |
| 2026-04-20 17:02 | 26.26940 | 50.63152 | 23 ft | 4 kts | 198° |
| 2026-04-20 17:02 | 26.26928 | 50.63146 | 23 ft | 1 kts | 211° |
| 2026-04-20 17:02 | 26.26915 | 50.63125 | 23 ft | 7 kts | 249° |
| 2026-04-20 17:03 | 26.26919 | 50.63093 | 23 ft | 5 kts | 294° |
| 2026-04-20 17:03 | 26.26923 | 50.63085 | 23 ft | 0 kts | 295° |
| 2026-04-20 17:04 | 26.26927 | 50.63076 | 23 ft | 5 kts | 295° |
| 2026-04-20 17:04 | 26.26950 | 50.63031 | 23 ft | 6 kts | 301° |
| 2026-04-20 17:05 | 26.26956 | 50.63004 | 23 ft | 1 kts | 267° |
| 2026-04-20 17:05 | 26.26943 | 50.62974 | 23 ft | 7 kts | 232° |
| 2026-04-20 17:05 | 26.26929 | 50.62962 | 23 ft | 3 kts | 211° |
| 2026-04-20 17:05 | 26.26919 | 50.62956 | 23 ft | 0 kts | 207° |
| 2026-04-20 17:06 | 26.26918 | 50.62955 | 23 ft | 1 kts | 207° |
| 2026-04-20 17:06 | 26.26893 | 50.62940 | 23 ft | 3 kts | 210° |
| 2026-04-20 17:06 | 26.26888 | 50.62937 | 23 ft | 0 kts | 211° |